Azamara Journey — 9HOB8 — position and weather

sailwx.info

Track history (hours):
 
Tides and Currents Weather Stations Pressure Air Temp Water Temp Dewpoint Dewpoint Depression Visibility Wind Speed Wind Dir Waves Ship Positions

Azamara Journey

Last reported at 2019-Sep-21 10:30 UTC. Time now 2019-Sep-21 11:00 UTC.
Position N 43°42' E 007°17'.

Type: Passenger vessel. MMSI: 256204000.

Date/timePositionNaut miles runAvg speedWind from/ knotsBaromVisibWave heightAir tempDewpointWater temp
2019-Sep-21 10:30N 43°42' E 007°17'0 0.0
2019-Sep-21 09:57N 43°42' E 007°17'0 0.0
2019-Sep-21 09:30N 43°42' E 007°17'0 0.0
2019-Sep-21 08:47N 43°42' E 007°17'0 1.1
2019-Sep-21 08:30N 43°41' E 007°17'3 6.7
2019-Sep-21 08:01N 43°41' E 007°22'5 8.8
2019-Sep-21 07:29N 43°44' E 007°26'0 0.0
2019-Sep-21 06:59N 43°44' E 007°26'0 0.0
2019-Sep-21 06:29N 43°44' E 007°26'0 0.0
2019-Sep-21 05:59N 43°44' E 007°26'0 0.0
2019-Sep-21 05:29N 43°44' E 007°26'0 0.0
2019-Sep-21 04:59N 43°44' E 007°26'0 0.0
2019-Sep-21 04:29N 43°44' E 007°26'0 0.0
2019-Sep-21 03:59N 43°44' E 007°26'0 0.0
2019-Sep-21 03:29N 43°44' E 007°26'0 0.0
2019-Sep-21 02:59N 43°44' E 007°26'0 0.0
2019-Sep-21 02:29N 43°44' E 007°26'0 0.0
2019-Sep-21 01:59N 43°44' E 007°26'0 0.0
2019-Sep-21 01:29N 43°44' E 007°26'0 0.0
2019-Sep-21 00:59N 43°44' E 007°26'0 0.0
2019-Sep-21 00:29N 43°44' E 007°26'0 0.0
2019-Sep-20 23:59N 43°44' E 007°26'0 0.0
2019-Sep-20 23:29N 43°44' E 007°26'0 0.0
2019-Sep-20 22:59N 43°44' E 007°26'0 0.0
2019-Sep-20 22:29N 43°44' E 007°26'0 0.0
2019-Sep-20 21:59N 43°44' E 007°26'0 0.0
2019-Sep-20 21:29N 43°44' E 007°26'3 5.1
2019-Sep-20 21:00N 43°42' E 007°24'31534.8 030 / 31019.910.8 23.016.522.0
2019-Sep-20 20:59N 43°44' E 007°26'0 0.0
2019-Sep-20 20:29N 43°44' E 007°26'0 0.0
2019-Sep-20 19:59N 43°44' E 007°26'0 0.0
2019-Sep-20 19:29N 43°44' E 007°26'0 0.0
2019-Sep-20 18:59N 43°44' E 007°26'0 0.0
2019-Sep-20 18:29N 43°44' E 007°26'0 0.0
2019-Sep-20 17:59N 43°44' E 007°26'0 0.0
2019-Sep-20 17:29N 43°44' E 007°26'0 0.3
2019-Sep-20 17:00N 43°44' E 007°26'3 6.1
2019-Sep-20 16:31N 43°41' E 007°25'612.1
2019-Sep-20 16:01N 43°37' E 007°19'611.7
2019-Sep-20 15:30N 43°33' E 007°13'611.8
2019-Sep-20 15:00N 43°30' E 007°07'4 8.9
2019-Sep-20 14:31N 43°31' E 007°01'1 2.4
2019-Sep-20 13:59N 43°32' E 007°01'0 0.0
2019-Sep-20 13:29N 43°32' E 007°01'0 0.0
2019-Sep-20 12:59N 43°32' E 007°01'0 0.0
2019-Sep-20 12:29N 43°32' E 007°01'0 0.0
2019-Sep-20 11:59N 43°32' E 007°01'0 0.0
2019-Sep-20 11:29N 43°32' E 007°01'0 0.0
2019-Sep-20 10:59N 43°32' E 007°01'0 0.1
2019-Sep-20 10:29N 43°32' E 007°01'0 0.0
2019-Sep-20 09:59N 43°32' E 007°01'0 0.0
2019-Sep-20 09:29N 43°32' E 007°01'0 0.0
2019-Sep-20 08:59N 43°32' E 007°01'0 0.1
2019-Sep-20 08:26N 43°32' E 007°01'0 0.1
2019-Sep-20 07:59N 43°32' E 007°01'0 0.0
2019-Sep-20 07:29N 43°32' E 007°01'0 0.1
2019-Sep-20 06:59N 43°32' E 007°01'0 0.1
2019-Sep-20 06:29N 43°32' E 007°01'0 0.1
2019-Sep-20 05:56N 43°32' E 007°01'0 0.1
2019-Sep-20 05:31N 43°32' E 007°01'3 6.2
2019-Sep-20 05:01N 43°29' E 007°02'4 8.7
2019-Sep-20 04:30N 43°26' E 007°07'4 8.7
2019-Sep-20 04:01N 43°24' E 007°12'4 8.8
2019-Sep-20 03:30N 43°22' E 007°17'5 9.0
2019-Sep-20 03:00N 43°19' E 007°22'4 8.9
2019-Sep-20 02:30N 43°16' E 007°27'4 8.7
2019-Sep-20 02:01N 43°14' E 007°32'4 8.9
2019-Sep-20 01:31N 43°11' E 007°37'5 9.1
2019-Sep-20 01:00N 43°09' E 007°42'5 9.3
2019-Sep-20 00:30N 43°06' E 007°47'4 9.0
2019-Sep-20 00:00N 43°04' E 007°52'5 9.0
2019-Sep-19 23:30N 43°01' E 007°57'5 9.4
2019-Sep-19 23:00N 42°58' E 008°02'5 8.7
2019-Sep-19 22:28N 42°55' E 008°07'1838.5
2019-Sep-19 22:00N 42°42' E 008°24'5 2.8 030 / 261015.810.8 22.017.223.0
2019-Sep-19 20:12N 42°44' E 008°30'15 8.1
2019-Sep-19 18:20N 42°34' E 008°46'0 0.6
2019-Sep-19 17:31N 42°34' E 008°46'0 0.1
2019-Sep-19 17:25N 42°34' E 008°46'0 0.0
2019-Sep-19 16:58N 42°34' E 008°46'0 0.0
2019-Sep-19 16:25N 42°34' E 008°46'0 0.0
2019-Sep-19 15:58N 42°34' E 008°46'0 0.0
2019-Sep-19 15:07N 42°34' E 008°46'0 0.1
2019-Sep-19 14:49N 42°34' E 008°46'0 0.1
2019-Sep-19 14:28N 42°34' E 008°46'0 0.0
2019-Sep-19 13:58N 42°34' E 008°46'0 0.0
2019-Sep-19 12:37N 42°34' E 008°46'0 0.0
2019-Sep-19 12:01N 42°34' E 008°46'0 0.0
2019-Sep-19 11:31N 42°34' E 008°46'0 0.0
2019-Sep-19 11:28N 42°34' E 008°46'0 0.0
2019-Sep-19 10:55N 42°34' E 008°46'0 0.0
2019-Sep-19 09:31N 42°34' E 008°46'0 0.0
2019-Sep-19 09:19N 42°34' E 008°46'0 0.0
2019-Sep-19 08:07N 42°34' E 008°46'0 0.0
2019-Sep-19 07:34N 42°34' E 008°46'0 0.1
2019-Sep-19 07:25N 42°34' E 008°46'0 0.0
2019-Sep-19 06:55N 42°34' E 008°46'0 0.1
2019-Sep-19 06:22N 42°34' E 008°46'0 0.0
2019-Sep-19 05:55N 42°34' E 008°46'0 1.2
2019-Sep-19 05:31N 42°34' E 008°46'510.6
2019-Sep-19 05:00N 42°38' E 008°41'610.9
2019-Sep-19 04:29N 42°41' E 008°34'511.0
2019-Sep-19 04:00N 42°43' E 008°28'611.4
2019-Sep-19 03:30N 42°45' E 008°21'611.2
2019-Sep-19 03:01N 42°47' E 008°14'611.2
2019-Sep-19 02:27N 42°50' E 008°06'511.5
2019-Sep-19 02:01N 42°52' E 007°60'611.5
2019-Sep-19 01:28N 42°55' E 007°52'511.5
2019-Sep-19 01:00N 42°57' E 007°45'611.6
2019-Sep-19 00:30N 42°59' E 007°38'611.7
2019-Sep-19 00:00N 43°01' E 007°30'611.6
2019-Sep-18 23:30N 43°03' E 007°23'611.2
2019-Sep-18 23:00N 43°06' E 007°16'611.4
2019-Sep-18 22:30N 43°09' E 007°09'611.5
2019-Sep-18 22:00N 43°11' E 007°02'611.2
2019-Sep-18 21:30N 43°13' E 006°55'611.4
2019-Sep-18 21:00N 43°16' E 006°48'10 1.2
2019-Sep-18 13:00N 43°12' E 006°36'17 4.4 080 / 91013.810.8 23.019.924.0
2019-Sep-18 09:00N 43°12' E 006°12'1912.6 030 / 31013.810.8 21.017.822.0
2019-Sep-18 07:27N 43°17' E 006°38'2 1.0
2019-Sep-18 05:08N 43°18' E 006°41'212.0
2019-Sep-18 05:00N 43°17' E 006°43'5 9.8
2019-Sep-18 04:30N 43°14' E 006°48'510.5
2019-Sep-18 04:00N 43°09' E 006°51'510.5
2019-Sep-18 03:30N 43°05' E 006°47'1110.5
2019-Sep-18 02:25N 42°55' E 006°38'710.4
2019-Sep-18 01:46N 42°49' E 006°33'510.5
2019-Sep-18 01:19N 42°46' E 006°30'36 8.3
2019-Sep-17 21:00N 42°54' E 005°42'28 1.8 250 / 31024.910.8 22.020.523.0
2019-Sep-17 04:57N 43°18' E 005°22'0 0.0
2019-Sep-17 04:27N 43°18' E 005°22'0 0.0
2019-Sep-17 03:57N 43°18' E 005°22'0 0.0
2019-Sep-17 01:27N 43°18' E 005°22'614.3
2019-Sep-17 01:00N 43°12' E 005°18'634.1 090 / 21015.810.8 21.014.218.0
2019-Sep-17 00:48N 43°18' E 005°22'0 0.0
2019-Sep-17 00:12N 43°18' E 005°22'0 0.0
2019-Sep-16 23:55N 43°18' E 005°22'6 1.6
2019-Sep-16 20:00N 43°12' E 005°18'36 1.9 090 / 61024.910.8 22.018.923.0
2019-Sep-16 01:00N 43°06' E 004°30'17 9.5 160 / 61018.927.0 20.014.918.0
2019-Sep-15 23:09N 43°13' E 004°08'1 9.9
2019-Sep-15 23:00N 43°14' E 004°06'510.0
2019-Sep-15 22:30N 43°15' E 003°60'5 9.9
2019-Sep-15 22:00N 43°17' E 003°53'5 9.9
2019-Sep-15 21:30N 43°20' E 003°48'510.0
2019-Sep-15 21:01N 43°24' E 003°44'1 2.0
2019-Sep-15 20:22N 43°24' E 003°42'0 0.0
2019-Sep-15 19:58N 43°24' E 003°42'0 0.0
2019-Sep-15 19:28N 43°24' E 003°42'0 0.0
2019-Sep-15 17:58N 43°24' E 003°42'0 0.0
2019-Sep-15 17:28N 43°24' E 003°42'0 0.1
2019-Sep-15 17:00N 43°24' E 003°42'0 1.9 1020.9 25.025.026.0
2019-Sep-15 16:58N 43°24' E 003°42'0 0.0
2019-Sep-15 16:22N 43°24' E 003°42'0 0.0
2019-Sep-15 15:52N 43°24' E 003°42'0 0.0
2019-Sep-15 15:28N 43°24' E 003°42'0 0.0
2019-Sep-15 14:58N 43°24' E 003°42'0 0.0
2019-Sep-15 14:28N 43°24' E 003°42'0 0.0
2019-Sep-15 13:58N 43°24' E 003°42'0 0.0
2019-Sep-15 13:28N 43°24' E 003°42'0 0.0
2019-Sep-15 12:58N 43°24' E 003°42'0 0.0
2019-Sep-15 12:28N 43°24' E 003°42'0 0.0
2019-Sep-15 11:58N 43°24' E 003°42'0 0.0
2019-Sep-15 11:28N 43°24' E 003°42'0 0.0
2019-Sep-15 10:58N 43°24' E 003°42'0 0.0
2019-Sep-15 10:28N 43°24' E 003°42'0 0.0
2019-Sep-15 09:58N 43°24' E 003°42'0 0.0
2019-Sep-15 09:16N 43°24' E 003°42'0 0.0
2019-Sep-15 08:58N 43°24' E 003°42'0 0.0
2019-Sep-15 08:28N 43°24' E 003°42'0 0.0
2019-Sep-15 07:58N 43°24' E 003°42'0 0.0
2019-Sep-15 07:28N 43°24' E 003°42'0 0.0
2019-Sep-15 06:58N 43°24' E 003°42'0 0.0
2019-Sep-15 06:28N 43°24' E 003°42'0 0.0
2019-Sep-15 05:58N 43°24' E 003°42'0 0.2
2019-Sep-15 05:30N 43°24' E 003°42'1 2.3
2019-Sep-15 05:00N 43°24' E 003°44'5 9.9
2019-Sep-15 04:30N 43°21' E 003°49'611.2
2019-Sep-15 04:00N 43°15' E 003°51'9213.1
2019-Sep-14 21:00N 41°48' E 003°12'5212.0 300 / 131022.910.8 21.019.422.5
2019-Sep-14 16:39N 41°20' E 002°13'212.4
2019-Sep-14 16:31N 41°21' E 002°11'2 2.9
2019-Sep-14 15:58N 41°22' E 002°11'0 0.0
2019-Sep-14 15:25N 41°22' E 002°11'0 0.0
2019-Sep-14 14:55N 41°22' E 002°11'0 0.0
2019-Sep-14 14:25N 41°22' E 002°11'0 0.0
2019-Sep-14 13:55N 41°22' E 002°11'0 0.0
2019-Sep-14 13:28N 41°22' E 002°11'0 0.0
2019-Sep-14 12:58N 41°22' E 002°11'0 0.0
2019-Sep-14 12:25N 41°22' E 002°11'0 0.0
2019-Sep-14 11:52N 41°22' E 002°11'0 0.0
2019-Sep-14 11:28N 41°22' E 002°11'0 0.0
2019-Sep-14 10:55N 41°22' E 002°11'0 0.0
2019-Sep-14 10:25N 41°22' E 002°11'0 0.0
2019-Sep-14 09:58N 41°22' E 002°11'0 0.0
2019-Sep-14 09:28N 41°22' E 002°11'0 0.0
2019-Sep-14 08:13N 41°22' E 002°11'0 0.0
2019-Sep-14 07:34N 41°22' E 002°11'0 0.0
2019-Sep-14 07:28N 41°22' E 002°11'0 0.0
2019-Sep-14 06:43N 41°22' E 002°11'0 0.0
2019-Sep-14 06:19N 41°22' E 002°11'0 0.0
2019-Sep-14 05:55N 41°22' E 002°11'0 0.0
2019-Sep-14 05:25N 41°22' E 002°11'613.0
2019-Sep-14 05:00N 41°18' E 002°06'615.1 1022.9 20.020.024.0
2019-Sep-14 04:37N 41°22' E 002°11'0 0.0
2019-Sep-14 04:25N 41°22' E 002°11'0 0.0
2019-Sep-14 02:31N 41°22' E 002°11'0 0.0
2019-Sep-14 01:49N 41°22' E 002°11'6 6.7
2019-Sep-14 01:00N 41°18' E 002°06'625.4 010 / 21024.910.8 22.017.218.0
2019-Sep-14 00:46N 41°22' E 002°11'0 0.0
2019-Sep-14 00:25N 41°22' E 002°11'0 0.0
2019-Sep-13 23:55N 41°22' E 002°11'0 0.0
2019-Sep-13 23:28N 41°22' E 002°11'0 0.0
2019-Sep-13 22:58N 41°22' E 002°11'0 0.0
2019-Sep-13 22:22N 41°22' E 002°11'0 0.0
2019-Sep-13 21:46N 41°22' E 002°11'0 0.0
2019-Sep-13 21:28N 41°22' E 002°11'0 0.0
2019-Sep-13 20:13N 41°22' E 002°11'193840.9
2019-Sep-13 20:00N 41°18' W 002°06'193713.8 1024.910.8 23.019.923.0
2019-Sep-13 19:43N 41°22' E 002°11'0 0.0
2019-Sep-13 19:25N 41°22' E 002°11'0 0.0
2019-Sep-13 18:49N 41°22' E 002°11'0 0.0
2019-Sep-13 18:01N 41°22' E 002°11'0 0.0
2019-Sep-13 17:43N 41°22' E 002°11'0 0.0
2019-Sep-13 17:19N 41°22' E 002°11'617.0
2019-Sep-13 17:00N 41°18' E 002°06'679.3 1023.8 23.023.023.0
2019-Sep-13 16:55N 41°22' E 002°11'0 0.0
2019-Sep-13 16:28N 41°22' E 002°11'0 0.0
2019-Sep-13 15:55N 41°22' E 002°11'0 0.0
2019-Sep-13 15:22N 41°22' E 002°11'0 0.0
2019-Sep-13 14:58N 41°22' E 002°11'0 0.0
2019-Sep-13 14:28N 41°22' E 002°11'0 0.0
2019-Sep-13 13:49N 41°22' E 002°11'0 0.0
2019-Sep-13 13:13N 41°22' E 002°11'0 0.0
2019-Sep-13 12:55N 41°22' E 002°11'0 0.0
2019-Sep-13 12:19N 41°22' E 002°11'0 0.0
2019-Sep-13 11:25N 41°22' E 002°11'0 0.0
2019-Sep-13 10:58N 41°22' E 002°11'0 0.0
2019-Sep-13 10:25N 41°22' E 002°11'0 0.0
2019-Sep-13 09:58N 41°22' E 002°11'0 0.0
2019-Sep-13 09:16N 41°22' E 002°11'0 0.0
2019-Sep-13 08:58N 41°22' E 002°11'0 0.0
2019-Sep-13 08:28N 41°22' E 002°11'0 0.0
2019-Sep-13 07:58N 41°22' E 002°11'0 0.0
2019-Sep-13 07:28N 41°22' E 002°11'0 0.0
2019-Sep-13 06:46N 41°22' E 002°11'0 0.0
2019-Sep-13 06:28N 41°22' E 002°11'0 0.0
2019-Sep-13 05:58N 41°22' E 002°11'0 0.0
2019-Sep-13 05:29N 41°22' E 002°11'2 4.7
2019-Sep-13 05:00N 41°20' E 002°13'4 8.5
2019-Sep-13 04:30N 41°18' E 002°17'510.4
2019-Sep-13 04:00N 41°15' E 002°22'510.2
2019-Sep-13 03:30N 41°11' E 002°27'510.1
2019-Sep-13 03:00N 41°08' E 002°32'5 9.8
2019-Sep-13 02:30N 41°04' E 002°37'1110.5
2019-Sep-13 01:30N 40°58' E 002°48'510.6
2019-Sep-13 01:00N 40°54' E 002°53'510.3
2019-Sep-13 00:30N 40°51' E 002°59'510.5
2019-Sep-13 00:00N 40°48' E 003°04'7454.8
2019-Sep-13 00:00N 40°42' E 003°00'714.4 050 / 271023.927.0 22.013.419.0
2019-Sep-12 23:30N 40°44' E 003°09'510.4
2019-Sep-12 23:00N 40°41' E 003°14'510.5
2019-Sep-12 22:30N 40°37' E 003°19'510.8
2019-Sep-12 22:00N 40°34' E 003°24'1110.4
2019-Sep-12 21:00N 40°24' E 003°30'35527.3 060 / 171023.910.8 23.019.925.0
2019-Sep-12 08:00N 39°48' W 004°12'36773.3 020 / 151022.910.8 24.017.725.0
2019-Sep-12 03:00N 39°18' E 003°42'2914.7 040 / 291019.5 24.024.024.0
2019-Sep-12 01:00N 39°00' E 003°12'6 7.6 080 / 391018.9 25.015.121.0
2019-Sep-12 00:13N 39°05' E 003°07'312.1
2019-Sep-12 00:00N 39°05' E 003°04'611.7
2019-Sep-11 23:30N 39°05' E 002°56'611.8
2019-Sep-11 23:00N 39°09' E 002°50'814.2
2019-Sep-11 22:27N 39°16' E 002°46'614.6
2019-Sep-11 22:00N 39°22' E 002°43'714.7
2019-Sep-11 21:30N 39°29' E 002°40'5 9.2
2019-Sep-11 21:00N 39°33' E 002°38'0 0.0
2019-Sep-11 20:28N 39°33' E 002°38'0 0.0
2019-Sep-11 19:58N 39°33' E 002°38'0 0.0
2019-Sep-11 19:28N 39°33' E 002°38'0 0.0
2019-Sep-11 18:58N 39°33' E 002°38'0 0.0
2019-Sep-11 18:28N 39°33' E 002°38'0 0.0
2019-Sep-11 17:58N 39°33' E 002°38'0 0.0
2019-Sep-11 17:28N 39°33' E 002°38'0 0.0
2019-Sep-11 16:58N 39°33' E 002°38'0 0.0
2019-Sep-11 16:28N 39°33' E 002°38'0 0.0
2019-Sep-11 15:58N 39°33' E 002°38'0 0.0
2019-Sep-11 15:28N 39°33' E 002°38'0 0.0
2019-Sep-11 14:58N 39°33' E 002°38'0 0.0
2019-Sep-11 14:28N 39°33' E 002°38'3 7.3
2019-Sep-11 14:00N 39°30' E 002°36'3169.8 100 / 51016.927.0 26.019.919.0
2019-Sep-11 13:58N 39°33' E 002°38'0 0.0
2019-Sep-11 13:28N 39°33' E 002°38'0 0.0
2019-Sep-11 12:58N 39°33' E 002°38'0 0.0
2019-Sep-11 12:22N 39°33' E 002°38'0 0.0
2019-Sep-11 11:58N 39°33' E 002°38'0 0.0
2019-Sep-11 11:28N 39°33' E 002°38'0 0.0
2019-Sep-11 10:52N 39°33' E 002°38'  
Track history (hours):
 
Tides and Currents Weather Stations Pressure Air Temp Water Temp Dewpoint Dewpoint Depression Visibility Wind Speed Wind Dir Waves Ship Positions

Azamara Journey

Last reported at 2019-Sep-21 10:30 UTC. Time now 2019-Sep-21 11:00 UTC.
Position N 43°42' E 007°17'.

Type: Passenger vessel. MMSI: 256204000.

Date/timePositionNaut miles runAvg speedWind from/ knotsBaromVisibWave heightAir tempDewpointWater temp
2019-Sep-21 10:30N 43°42' E 007°17'0 0.0
2019-Sep-21 09:57N 43°42' E 007°17'0 0.0
2019-Sep-21 09:30N 43°42' E 007°17'0 0.0
2019-Sep-21 08:47N 43°42' E 007°17'0 1.1
2019-Sep-21 08:30N 43°41' E 007°17'3 6.7
2019-Sep-21 08:01N 43°41' E 007°22'5 8.8
2019-Sep-21 07:29N 43°44' E 007°26'0 0.0
2019-Sep-21 06:59N 43°44' E 007°26'0 0.0
2019-Sep-21 06:29N 43°44' E 007°26'0 0.0
2019-Sep-21 05:59N 43°44' E 007°26'0 0.0
2019-Sep-21 05:29N 43°44' E 007°26'0 0.0
2019-Sep-21 04:59N 43°44' E 007°26'0 0.0
2019-Sep-21 04:29N 43°44' E 007°26'0 0.0
2019-Sep-21 03:59N 43°44' E 007°26'0 0.0
2019-Sep-21 03:29N 43°44' E 007°26'0 0.0
2019-Sep-21 02:59N 43°44' E 007°26'0 0.0
2019-Sep-21 02:29N 43°44' E 007°26'0 0.0
2019-Sep-21 01:59N 43°44' E 007°26'0 0.0
2019-Sep-21 01:29N 43°44' E 007°26'0 0.0
2019-Sep-21 00:59N 43°44' E 007°26'0 0.0
2019-Sep-21 00:29N 43°44' E 007°26'0 0.0
2019-Sep-20 23:59N 43°44' E 007°26'0 0.0
2019-Sep-20 23:29N 43°44' E 007°26'0 0.0
2019-Sep-20 22:59N 43°44' E 007°26'0 0.0
2019-Sep-20 22:29N 43°44' E 007°26'0 0.0
2019-Sep-20 21:59N 43°44' E 007°26'0 0.0
2019-Sep-20 21:29N 43°44' E 007°26'3 5.1
2019-Sep-20 21:00N 43°42' E 007°24'31534.8 030 / 31019.910.8 23.016.522.0
2019-Sep-20 20:59N 43°44' E 007°26'0 0.0
2019-Sep-20 20:29N 43°44' E 007°26'0 0.0
2019-Sep-20 19:59N 43°44' E 007°26'0 0.0
2019-Sep-20 19:29N 43°44' E 007°26'0 0.0
2019-Sep-20 18:59N 43°44' E 007°26'0 0.0
2019-Sep-20 18:29N 43°44' E 007°26'0 0.0
2019-Sep-20 17:59N 43°44' E 007°26'0 0.0
2019-Sep-20 17:29N 43°44' E 007°26'0 0.3
2019-Sep-20 17:00N 43°44' E 007°26'3 6.1
2019-Sep-20 16:31N 43°41' E 007°25'612.1
2019-Sep-20 16:01N 43°37' E 007°19'611.7
2019-Sep-20 15:30N 43°33' E 007°13'611.8
2019-Sep-20 15:00N 43°30' E 007°07'4 8.9
2019-Sep-20 14:31N 43°31' E 007°01'1 2.4
2019-Sep-20 13:59N 43°32' E 007°01'0 0.0
2019-Sep-20 13:29N 43°32' E 007°01'0 0.0
2019-Sep-20 12:59N 43°32' E 007°01'0 0.0
2019-Sep-20 12:29N 43°32' E 007°01'0 0.0
2019-Sep-20 11:59N 43°32' E 007°01'0 0.0
2019-Sep-20 11:29N 43°32' E 007°01'0 0.0
2019-Sep-20 10:59N 43°32' E 007°01'0 0.1
2019-Sep-20 10:29N 43°32' E 007°01'0 0.0
2019-Sep-20 09:59N 43°32' E 007°01'0 0.0
2019-Sep-20 09:29N 43°32' E 007°01'0 0.0
2019-Sep-20 08:59N 43°32' E 007°01'0 0.1
2019-Sep-20 08:26N 43°32' E 007°01'0 0.1
2019-Sep-20 07:59N 43°32' E 007°01'0 0.0
2019-Sep-20 07:29N 43°32' E 007°01'0 0.1
2019-Sep-20 06:59N 43°32' E 007°01'0 0.1
2019-Sep-20 06:29N 43°32' E 007°01'0 0.1
2019-Sep-20 05:56N 43°32' E 007°01'0 0.1
2019-Sep-20 05:31N 43°32' E 007°01'3 6.2
2019-Sep-20 05:01N 43°29' E 007°02'4 8.7
2019-Sep-20 04:30N 43°26' E 007°07'4 8.7
2019-Sep-20 04:01N 43°24' E 007°12'4 8.8
2019-Sep-20 03:30N 43°22' E 007°17'5 9.0
2019-Sep-20 03:00N 43°19' E 007°22'4 8.9
2019-Sep-20 02:30N 43°16' E 007°27'4 8.7
2019-Sep-20 02:01N 43°14' E 007°32'4 8.9
2019-Sep-20 01:31N 43°11' E 007°37'5 9.1
2019-Sep-20 01:00N 43°09' E 007°42'5 9.3
2019-Sep-20 00:30N 43°06' E 007°47'4 9.0
2019-Sep-20 00:00N 43°04' E 007°52'5 9.0
2019-Sep-19 23:30N 43°01' E 007°57'5 9.4
2019-Sep-19 23:00N 42°58' E 008°02'5 8.7
2019-Sep-19 22:28N 42°55' E 008°07'1838.5
2019-Sep-19 22:00N 42°42' E 008°24'5 2.8 030 / 261015.810.8 22.017.223.0
2019-Sep-19 20:12N 42°44' E 008°30'15 8.1
2019-Sep-19 18:20N 42°34' E 008°46'0 0.6
2019-Sep-19 17:31N 42°34' E 008°46'0 0.1
2019-Sep-19 17:25N 42°34' E 008°46'0 0.0
2019-Sep-19 16:58N 42°34' E 008°46'0 0.0
2019-Sep-19 16:25N 42°34' E 008°46'0 0.0
2019-Sep-19 15:58N 42°34' E 008°46'0 0.0
2019-Sep-19 15:07N 42°34' E 008°46'0 0.1
2019-Sep-19 14:49N 42°34' E 008°46'0 0.1
2019-Sep-19 14:28N 42°34' E 008°46'0 0.0
2019-Sep-19 13:58N 42°34' E 008°46'0 0.0
2019-Sep-19 12:37N 42°34' E 008°46'0 0.0
2019-Sep-19 12:01N 42°34' E 008°46'0 0.0
2019-Sep-19 11:31N 42°34' E 008°46'0 0.0
2019-Sep-19 11:28N 42°34' E 008°46'0 0.0
2019-Sep-19 10:55N 42°34' E 008°46'0 0.0
2019-Sep-19 09:31N 42°34' E 008°46'0 0.0
2019-Sep-19 09:19N 42°34' E 008°46'0 0.0
2019-Sep-19 08:07N 42°34' E 008°46'0 0.0
2019-Sep-19 07:34N 42°34' E 008°46'0 0.1
2019-Sep-19 07:25N 42°34' E 008°46'0 0.0
2019-Sep-19 06:55N 42°34' E 008°46'0 0.1
2019-Sep-19 06:22N 42°34' E 008°46'0 0.0
2019-Sep-19 05:55N 42°34' E 008°46'0 1.2
2019-Sep-19 05:31N 42°34' E 008°46'510.6
2019-Sep-19 05:00N 42°38' E 008°41'610.9
2019-Sep-19 04:29N 42°41' E 008°34'511.0
2019-Sep-19 04:00N 42°43' E 008°28'611.4
2019-Sep-19 03:30N 42°45' E 008°21'611.2
2019-Sep-19 03:01N 42°47' E 008°14'611.2
2019-Sep-19 02:27N 42°50' E 008°06'511.5
2019-Sep-19 02:01N 42°52' E 007°60'611.5
2019-Sep-19 01:28N 42°55' E 007°52'511.5
2019-Sep-19 01:00N 42°57' E 007°45'611.6
2019-Sep-19 00:30N 42°59' E 007°38'611.7
2019-Sep-19 00:00N 43°01' E 007°30'611.6
2019-Sep-18 23:30N 43°03' E 007°23'611.2
2019-Sep-18 23:00N 43°06' E 007°16'611.4
2019-Sep-18 22:30N 43°09' E 007°09'611.5
2019-Sep-18 22:00N 43°11' E 007°02'611.2
2019-Sep-18 21:30N 43°13' E 006°55'611.4
2019-Sep-18 21:00N 43°16' E 006°48'10 1.2
2019-Sep-18 13:00N 43°12' E 006°36'17 4.4 080 / 91013.810.8 23.019.924.0
2019-Sep-18 09:00N 43°12' E 006°12'1912.6 030 / 31013.810.8 21.017.822.0
2019-Sep-18 07:27N 43°17' E 006°38'2 1.0
2019-Sep-18 05:08N 43°18' E 006°41'212.0
2019-Sep-18 05:00N 43°17' E 006°43'5 9.8
2019-Sep-18 04:30N 43°14' E 006°48'510.5
2019-Sep-18 04:00N 43°09' E 006°51'510.5
2019-Sep-18 03:30N 43°05' E 006°47'1110.5
2019-Sep-18 02:25N 42°55' E 006°38'710.4
2019-Sep-18 01:46N 42°49' E 006°33'510.5
2019-Sep-18 01:19N 42°46' E 006°30'36 8.3
2019-Sep-17 21:00N 42°54' E 005°42'28 1.8 250 / 31024.910.8 22.020.523.0
2019-Sep-17 04:57N 43°18' E 005°22'0 0.0
2019-Sep-17 04:27N 43°18' E 005°22'0 0.0
2019-Sep-17 03:57N 43°18' E 005°22'0 0.0
2019-Sep-17 01:27N 43°18' E 005°22'614.3
2019-Sep-17 01:00N 43°12' E 005°18'634.1 090 / 21015.810.8 21.014.218.0
2019-Sep-17 00:48N 43°18' E 005°22'0 0.0
2019-Sep-17 00:12N 43°18' E 005°22'0 0.0
2019-Sep-16 23:55N 43°18' E 005°22'6 1.6
2019-Sep-16 20:00N 43°12' E 005°18'36 1.9 090 / 61024.910.8 22.018.923.0
2019-Sep-16 01:00N 43°06' E 004°30'17 9.5 160 / 61018.927.0 20.014.918.0
2019-Sep-15 23:09N 43°13' E 004°08'1 9.9
2019-Sep-15 23:00N 43°14' E 004°06'510.0
2019-Sep-15 22:30N 43°15' E 003°60'5 9.9
2019-Sep-15 22:00N 43°17' E 003°53'5 9.9
2019-Sep-15 21:30N 43°20' E 003°48'510.0
2019-Sep-15 21:01N 43°24' E 003°44'1 2.0
2019-Sep-15 20:22N 43°24' E 003°42'0 0.0
2019-Sep-15 19:58N 43°24' E 003°42'0 0.0
2019-Sep-15 19:28N 43°24' E 003°42'0 0.0
2019-Sep-15 17:58N 43°24' E 003°42'0 0.0
2019-Sep-15 17:28N 43°24' E 003°42'0 0.1
2019-Sep-15 17:00N 43°24' E 003°42'0 1.9 1020.9 25.025.026.0
2019-Sep-15 16:58N 43°24' E 003°42'0 0.0
2019-Sep-15 16:22N 43°24' E 003°42'0 0.0
2019-Sep-15 15:52N 43°24' E 003°42'0 0.0
2019-Sep-15 15:28N 43°24' E 003°42'0 0.0
2019-Sep-15 14:58N 43°24' E 003°42'0 0.0
2019-Sep-15 14:28N 43°24' E 003°42'0 0.0
2019-Sep-15 13:58N 43°24' E 003°42'0 0.0
2019-Sep-15 13:28N 43°24' E 003°42'0 0.0
2019-Sep-15 12:58N 43°24' E 003°42'0 0.0
2019-Sep-15 12:28N 43°24' E 003°42'0 0.0
2019-Sep-15 11:58N 43°24' E 003°42'0 0.0
2019-Sep-15 11:28N 43°24' E 003°42'0 0.0
2019-Sep-15 10:58N 43°24' E 003°42'0 0.0
2019-Sep-15 10:28N 43°24' E 003°42'0 0.0
2019-Sep-15 09:58N 43°24' E 003°42'0 0.0
2019-Sep-15 09:16N 43°24' E 003°42'0 0.0
2019-Sep-15 08:58N 43°24' E 003°42'0 0.0
2019-Sep-15 08:28N 43°24' E 003°42'0 0.0
2019-Sep-15 07:58N 43°24' E 003°42'0 0.0
2019-Sep-15 07:28N 43°24' E 003°42'0 0.0
2019-Sep-15 06:58N 43°24' E 003°42'0 0.0
2019-Sep-15 06:28N 43°24' E 003°42'0 0.0
2019-Sep-15 05:58N 43°24' E 003°42'0 0.2
2019-Sep-15 05:30N 43°24' E 003°42'1 2.3
2019-Sep-15 05:00N 43°24' E 003°44'5 9.9
2019-Sep-15 04:30N 43°21' E 003°49'611.2
2019-Sep-15 04:00N 43°15' E 003°51'9213.1
2019-Sep-14 21:00N 41°48' E 003°12'5212.0 300 / 131022.910.8 21.019.422.5
2019-Sep-14 16:39N 41°20' E 002°13'212.4
2019-Sep-14 16:31N 41°21' E 002°11'2 2.9
2019-Sep-14 15:58N 41°22' E 002°11'0 0.0
2019-Sep-14 15:25N 41°22' E 002°11'0 0.0
2019-Sep-14 14:55N 41°22' E 002°11'0 0.0
2019-Sep-14 14:25N 41°22' E 002°11'0 0.0
2019-Sep-14 13:55N 41°22' E 002°11'0 0.0
2019-Sep-14 13:28N 41°22' E 002°11'0 0.0
2019-Sep-14 12:58N 41°22' E 002°11'0 0.0
2019-Sep-14 12:25N 41°22' E 002°11'0 0.0
2019-Sep-14 11:52N 41°22' E 002°11'0 0.0
2019-Sep-14 11:28N 41°22' E 002°11'0 0.0
2019-Sep-14 10:55N 41°22' E 002°11'0 0.0
2019-Sep-14 10:25N 41°22' E 002°11'0 0.0
2019-Sep-14 09:58N 41°22' E 002°11'0 0.0
2019-Sep-14 09:28N 41°22' E 002°11'0 0.0
2019-Sep-14 08:13N 41°22' E 002°11'0 0.0
2019-Sep-14 07:34N 41°22' E 002°11'0 0.0
2019-Sep-14 07:28N 41°22' E 002°11'0 0.0
2019-Sep-14 06:43N 41°22' E 002°11'0 0.0
2019-Sep-14 06:19N 41°22' E 002°11'0 0.0
2019-Sep-14 05:55N 41°22' E 002°11'0 0.0
2019-Sep-14 05:25N 41°22' E 002°11'613.0
2019-Sep-14 05:00N 41°18' E 002°06'615.1 1022.9 20.020.024.0
2019-Sep-14 04:37N 41°22' E 002°11'0 0.0
2019-Sep-14 04:25N 41°22' E 002°11'0 0.0
2019-Sep-14 02:31N 41°22' E 002°11'0 0.0
2019-Sep-14 01:49N 41°22' E 002°11'6 6.7
2019-Sep-14 01:00N 41°18' E 002°06'625.4 010 / 21024.910.8 22.017.218.0
2019-Sep-14 00:46N 41°22' E 002°11'0 0.0
2019-Sep-14 00:25N 41°22' E 002°11'0 0.0
2019-Sep-13 23:55N 41°22' E 002°11'0 0.0
2019-Sep-13 23:28N 41°22' E 002°11'0 0.0
2019-Sep-13 22:58N 41°22' E 002°11'0 0.0
2019-Sep-13 22:22N 41°22' E 002°11'0 0.0
2019-Sep-13 21:46N 41°22' E 002°11'0 0.0
2019-Sep-13 21:28N 41°22' E 002°11'0 0.0
2019-Sep-13 20:13N 41°22' E 002°11'193840.9
2019-Sep-13 20:00N 41°18' W 002°06'193713.8 1024.910.8 23.019.923.0
2019-Sep-13 19:43N 41°22' E 002°11'0 0.0
2019-Sep-13 19:25N 41°22' E 002°11'0 0.0
2019-Sep-13 18:49N 41°22' E 002°11'0 0.0
2019-Sep-13 18:01N 41°22' E 002°11'0 0.0
2019-Sep-13 17:43N 41°22' E 002°11'0 0.0
2019-Sep-13 17:19N 41°22' E 002°11'617.0
2019-Sep-13 17:00N 41°18' E 002°06'679.3 1023.8 23.023.023.0
2019-Sep-13 16:55N 41°22' E 002°11'0 0.0
2019-Sep-13 16:28N 41°22' E 002°11'0 0.0
2019-Sep-13 15:55N 41°22' E 002°11'0 0.0
2019-Sep-13 15:22N 41°22' E 002°11'0 0.0
2019-Sep-13 14:58N 41°22' E 002°11'0 0.0
2019-Sep-13 14:28N 41°22' E 002°11'0 0.0
2019-Sep-13 13:49N 41°22' E 002°11'0 0.0
2019-Sep-13 13:13N 41°22' E 002°11'0 0.0
2019-Sep-13 12:55N 41°22' E 002°11'0 0.0
2019-Sep-13 12:19N 41°22' E 002°11'0 0.0
2019-Sep-13 11:25N 41°22' E 002°11'0 0.0
2019-Sep-13 10:58N 41°22' E 002°11'0 0.0
2019-Sep-13 10:25N 41°22' E 002°11'0 0.0
2019-Sep-13 09:58N 41°22' E 002°11'0 0.0
2019-Sep-13 09:16N 41°22' E 002°11'0 0.0
2019-Sep-13 08:58N 41°22' E 002°11'0 0.0
2019-Sep-13 08:28N 41°22' E 002°11'0 0.0
2019-Sep-13 07:58N 41°22' E 002°11'0 0.0
2019-Sep-13 07:28N 41°22' E 002°11'0 0.0
2019-Sep-13 06:46N 41°22' E 002°11'0 0.0
2019-Sep-13 06:28N 41°22' E 002°11'0 0.0
2019-Sep-13 05:58N 41°22' E 002°11'0 0.0
2019-Sep-13 05:29N 41°22' E 002°11'2 4.7
2019-Sep-13 05:00N 41°20' E 002°13'4 8.5
2019-Sep-13 04:30N 41°18' E 002°17'510.4
2019-Sep-13 04:00N 41°15' E 002°22'510.2
2019-Sep-13 03:30N 41°11' E 002°27'510.1
2019-Sep-13 03:00N 41°08' E 002°32'5 9.8
2019-Sep-13 02:30N 41°04' E 002°37'1110.5
2019-Sep-13 01:30N 40°58' E 002°48'510.6
2019-Sep-13 01:00N 40°54' E 002°53'510.3
2019-Sep-13 00:30N 40°51' E 002°59'510.5
2019-Sep-13 00:00N 40°48' E 003°04'7454.8
2019-Sep-13 00:00N 40°42' E 003°00'714.4 050 / 271023.927.0 22.013.419.0
2019-Sep-12 23:30N 40°44' E 003°09'510.4
2019-Sep-12 23:00N 40°41' E 003°14'510.5
2019-Sep-12 22:30N 40°37' E 003°19'510.8
2019-Sep-12 22:00N 40°34' E 003°24'1110.4
2019-Sep-12 21:00N 40°24' E 003°30'35527.3 060 / 171023.910.8 23.019.925.0
2019-Sep-12 08:00N 39°48' W 004°12'36773.3 020 / 151022.910.8 24.017.725.0
2019-Sep-12 03:00N 39°18' E 003°42'2914.7 040 / 291019.5 24.024.024.0
2019-Sep-12 01:00N 39°00' E 003°12'6 7.6 080 / 391018.9 25.015.121.0
2019-Sep-12 00:13N 39°05' E 003°07'312.1
2019-Sep-12 00:00N 39°05' E 003°04'611.7
2019-Sep-11 23:30N 39°05' E 002°56'611.8
2019-Sep-11 23:00N 39°09' E 002°50'814.2
2019-Sep-11 22:27N 39°16' E 002°46'614.6
2019-Sep-11 22:00N 39°22' E 002°43'714.7
2019-Sep-11 21:30N 39°29' E 002°40'5 9.2
2019-Sep-11 21:00N 39°33' E 002°38'0 0.0
2019-Sep-11 20:28N 39°33' E 002°38'0 0.0
2019-Sep-11 19:58N 39°33' E 002°38'0 0.0
2019-Sep-11 19:28N 39°33' E 002°38'0 0.0
2019-Sep-11 18:58N 39°33' E 002°38'0 0.0
2019-Sep-11 18:28N 39°33' E 002°38'0 0.0
2019-Sep-11 17:58N 39°33' E 002°38'0 0.0
2019-Sep-11 17:28N 39°33' E 002°38'0 0.0
2019-Sep-11 16:58N 39°33' E 002°38'0 0.0
2019-Sep-11 16:28N 39°33' E 002°38'0 0.0
2019-Sep-11 15:58N 39°33' E 002°38'0 0.0
2019-Sep-11 15:28N 39°33' E 002°38'0 0.0
2019-Sep-11 14:58N 39°33' E 002°38'0 0.0
2019-Sep-11 14:28N 39°33' E 002°38'3 7.3
2019-Sep-11 14:00N 39°30' E 002°36'3169.8 100 / 51016.927.0 26.019.919.0
2019-Sep-11 13:58N 39°33' E 002°38'0 0.0
2019-Sep-11 13:28N 39°33' E 002°38'0 0.0
2019-Sep-11 12:58N 39°33' E 002°38'0 0.0
2019-Sep-11 12:22N 39°33' E 002°38'0 0.0
2019-Sep-11 11:58N 39°33' E 002°38'0 0.0
2019-Sep-11 11:28N 39°33' E 002°38'0 0.0
2019-Sep-11 10:52N 39°33' E 002°38'  

Dump ship's entire track history